createdAt,value
2023-05-20T00:00:57.254Z,98929.66
2023-05-20T00:03:25.531Z,98931.88
2023-05-20T00:05:53.067Z,98921.84
2023-05-20T00:08:20.987Z,98931.06
2023-05-20T00:10:48.812Z,98919.03
2023-05-20T00:13:16.281Z,98924.38
2023-05-20T00:15:43.889Z,98925.75
2023-05-20T00:18:11.483Z,98921.00
2023-05-20T00:20:40.096Z,98919.00
2023-05-20T00:23:07.371Z,98917.06
2023-05-20T00:25:35.185Z,98920.94
2023-05-20T00:28:03.012Z,98911.16
2023-05-20T00:30:30.295Z,98906.38
2023-05-20T00:32:57.566Z,98907.75
2023-05-20T00:35:24.871Z,98914.00
2023-05-20T00:37:52.187Z,98902.22
2023-05-20T00:40:20.979Z,98904.19
2023-05-20T00:42:48.203Z,98903.59
2023-05-20T00:45:15.703Z,98905.56
2023-05-20T00:47:43.842Z,98902.16
2023-05-20T00:50:11.761Z,98899.69
2023-05-20T00:52:44.006Z,98896.56
2023-05-20T00:55:12.620Z,98903.06
2023-05-20T00:57:40.394Z,98906.69
2023-05-20T01:00:10.763Z,98898.81
2023-05-20T01:02:38.963Z,98899.94
2023-05-20T01:05:07.921Z,98899.66
2023-05-20T01:07:35.805Z,98907.50
2023-05-20T01:10:04.184Z,98908.63
2023-05-20T01:12:46.643Z,98887.81
2023-05-20T01:15:16.676Z,98893.22
2023-05-20T01:17:52.982Z,98892.09
2023-05-20T01:20:22.224Z,98891.56
2023-05-20T01:22:57.618Z,98884.56
2023-05-20T01:25:26.486Z,98880.88
2023-05-20T01:28:00.681Z,98882.88
2023-05-20T01:30:37.621Z,98877.00
2023-05-20T01:33:13.472Z,98870.28
2023-05-20T01:35:42.672Z,98879.81
2023-05-20T01:38:10.188Z,98876.19
2023-05-20T01:40:38.800Z,98879.28
2023-05-20T01:43:07.313Z,98881.19
2023-05-20T01:45:37.026Z,98875.63
2023-05-20T01:48:05.202Z,98883.19
2023-05-20T01:50:32.602Z,98878.41
2023-05-20T01:53:01.223Z,98874.78
2023-05-20T01:55:28.655Z,98880.38
2023-05-20T01:57:56.011Z,98872.28
2023-05-20T02:00:23.456Z,98878.41
2023-05-20T02:02:50.954Z,98873.09
2023-05-20T02:05:18.794Z,98864.41
2023-05-20T02:07:46.441Z,98870.59
2023-05-20T02:10:14.528Z,98869.78
2023-05-20T02:12:43.013Z,98862.50
2023-05-20T02:15:11.101Z,98866.69
2023-05-20T02:17:39.823Z,98862.19
2023-05-20T02:20:08.668Z,98864.72
2023-05-20T02:22:36.911Z,98864.16
2023-05-20T02:25:05.562Z,98856.06
2023-05-20T02:27:32.916Z,98862.47
2023-05-20T02:30:01.590Z,98859.38
2023-05-20T02:32:29.526Z,98868.06
2023-05-20T02:34:57.065Z,98862.72
2023-05-20T02:37:24.392Z,98868.34
2023-05-20T02:39:51.613Z,98869.47
2023-05-20T02:42:19.559Z,98875.88
2023-05-20T02:44:46.953Z,98879.81
2023-05-20T02:47:14.700Z,98877.00
2023-05-20T02:49:42.210Z,98875.03
2023-05-20T02:52:10.624Z,98870.84
2023-05-20T02:54:38.202Z,98880.56
2023-05-20T02:57:05.723Z,98880.59
2023-05-20T02:59:33.039Z,98878.09
2023-05-20T03:02:00.812Z,98881.72
2023-05-20T03:04:28.976Z,98878.91
2023-05-20T03:06:57.916Z,98880.28
2023-05-20T03:09:25.838Z,98878.00
2023-05-20T03:11:53.694Z,98874.06
2023-05-20T03:14:21.503Z,98875.75
2023-05-20T03:16:49.092Z,98879.63
2023-05-20T03:19:17.002Z,98868.16
2023-05-20T03:21:44.493Z,98874.59
2023-05-20T03:24:12.035Z,98866.75
2023-05-20T03:26:43.301Z,98865.34
2023-05-20T03:29:10.982Z,98868.94
2023-05-20T03:31:38.527Z,98874.50
2023-05-20T03:34:05.873Z,98877.63
2023-05-20T03:36:33.318Z,98876.22
2023-05-20T03:39:01.922Z,98875.66
2023-05-20T03:41:31.092Z,98881.28
2023-05-20T03:43:58.467Z,98882.94
2023-05-20T03:46:27.305Z,98889.66
2023-05-20T03:48:54.643Z,98884.09
2023-05-20T03:51:22.937Z,98884.63
2023-05-20T03:53:51.590Z,98881.59
2023-05-20T03:56:19.107Z,98888.75
2023-05-20T03:58:46.435Z,98887.13
2023-05-20T04:01:14.395Z,98881.38
2023-05-20T04:03:42.909Z,98880.06
2023-05-20T04:06:10.296Z,98883.13
2023-05-20T04:08:37.883Z,98879.22
2023-05-20T04:11:06.221Z,98889.91
2023-05-20T04:13:34.469Z,98875.06
2023-05-20T04:16:03.031Z,98881.25
2023-05-20T04:18:31.867Z,98877.88
2023-05-20T04:21:24.885Z,98881.78
2023-05-20T04:23:52.236Z,98877.00
2023-05-20T04:26:20.708Z,98876.47
2023-05-20T04:28:51.049Z,98868.56
2023-05-20T04:31:18.706Z,98869.16
2023-05-20T04:33:46.596Z,98861.81
2023-05-20T04:36:16.202Z,98865.66
2023-05-20T04:38:44.748Z,98870.63
2023-05-20T04:41:12.136Z,98861.13
2023-05-20T04:43:40.469Z,98864.47
2023-05-20T04:46:08.847Z,98871.56
2023-05-20T04:48:36.596Z,98874.66
2023-05-20T04:51:04.709Z,98865.56
2023-05-20T04:53:33.943Z,98864.84
2023-05-20T04:56:01.919Z,98869.44
2023-05-20T04:58:31.692Z,98866.78
2023-05-20T05:00:59.972Z,98866.16
2023-05-20T05:03:27.663Z,98864.00
2023-05-20T05:05:59.271Z,98866.00
2023-05-20T05:08:27.070Z,98860.78
2023-05-20T05:10:55.260Z,98861.69
2023-05-20T05:13:22.852Z,98866.09
2023-05-20T05:16:03.250Z,98859.84
2023-05-20T05:18:32.475Z,98856.75
2023-05-20T05:21:05.247Z,98862.97
2023-05-20T05:23:34.650Z,98852.03
2023-05-20T05:26:02.056Z,98853.94
2023-05-20T05:28:29.320Z,98846.84
2023-05-20T05:30:57.252Z,98852.72
2023-05-20T05:33:24.740Z,98855.19
2023-05-20T05:35:52.700Z,98850.06
2023-05-20T05:38:20.240Z,98838.09
2023-05-20T05:40:47.662Z,98836.34
2023-05-20T05:43:16.219Z,98848.28
2023-05-20T05:45:46.433Z,98848.09
2023-05-20T05:48:13.859Z,98833.03
2023-05-20T05:50:46.442Z,98837.13
2023-05-20T05:53:15.466Z,98840.50
2023-05-20T05:55:47.457Z,98832.84
2023-05-20T05:58:15.524Z,98838.94
2023-05-20T06:00:42.779Z,98832.59
2023-05-20T06:03:14.978Z,98841.28
2023-05-20T06:05:47.302Z,98834.66
2023-05-20T06:08:14.707Z,98833.00
2023-05-20T06:10:42.195Z,98838.88
2023-05-20T06:13:09.373Z,98837.19
2023-05-20T06:15:37.005Z,98828.94
2023-05-20T06:18:04.526Z,98828.59
2023-05-20T06:20:32.876Z,98825.81
2023-05-20T06:23:00.291Z,98823.00
2023-05-20T06:25:42.068Z,98831.75
2023-05-20T06:28:09.322Z,98826.84
2023-05-20T06:30:36.631Z,98823.81
2023-05-20T06:33:04.204Z,98826.88
2023-05-20T06:35:31.418Z,98825.81
2023-05-20T06:37:58.776Z,98819.47
2023-05-20T06:40:27.376Z,98813.34
2023-05-20T06:42:55.170Z,98826.38
2023-05-20T06:45:43.626Z,98812.88
2023-05-20T06:48:34.400Z,98821.56
2023-05-20T06:51:09.582Z,98828.56
2023-05-20T06:53:37.464Z,98818.66
2023-05-20T06:56:05.248Z,98816.69
2023-05-20T06:58:33.402Z,98810.06
2023-05-20T07:01:00.642Z,98817.09
2023-05-20T07:03:28.451Z,98799.44
2023-05-20T07:05:55.964Z,98808.44
2023-05-20T07:08:24.327Z,98810.56
2023-05-20T07:10:52.340Z,98804.56
2023-05-20T07:13:24.060Z,98797.56
2023-05-20T07:15:52.596Z,98804.22
2023-05-20T07:18:21.535Z,98804.59
2023-05-20T07:20:53.541Z,98799.09
2023-05-20T07:23:33.804Z,98791.88
2023-05-20T07:26:01.431Z,98786.34
2023-05-20T07:28:30.828Z,98791.75
2023-05-20T07:31:00.197Z,98786.69
2023-05-20T07:33:30.965Z,98790.72
2023-05-20T07:35:59.385Z,98798.59
2023-05-20T07:38:26.981Z,98797.91
2023-05-20T07:41:01.040Z,98792.75
2023-05-20T07:43:29.096Z,98794.66
2023-05-20T07:45:57.333Z,98789.56
2023-05-20T07:48:29.037Z,98775.41
2023-05-20T07:51:03.972Z,98775.53
2023-05-20T07:53:33.640Z,98762.25
2023-05-20T07:56:01.201Z,98763.34
2023-05-20T07:58:31.786Z,98760.66
2023-05-20T08:01:00.398Z,98769.00
2023-05-20T08:03:28.740Z,98776.31
2023-05-20T08:06:03.802Z,98780.94
2023-05-20T08:08:31.342Z,98766.97
2023-05-20T08:11:06.302Z,98764.56
2023-05-20T08:13:34.131Z,98763.97
2023-05-20T08:17:18.039Z,98778.16
2023-05-20T08:19:46.241Z,98785.69
2023-05-20T08:23:33.355Z,98784.84
2023-05-20T08:26:04.201Z,98776.13
2023-05-20T08:28:34.390Z,98776.22
2023-05-20T08:31:02.650Z,98777.50
2023-05-20T08:33:31.355Z,98774.47
2023-05-20T08:35:59.209Z,98788.78
2023-05-20T08:38:26.600Z,98776.09
2023-05-20T08:40:58.051Z,98772.03
2023-05-20T08:44:41.252Z,98780.63
2023-05-20T08:48:24.668Z,98767.59
2023-05-20T08:50:53.693Z,98762.47
2023-05-20T08:54:37.737Z,98763.53
2023-05-20T08:57:05.971Z,98773.88
2023-05-20T09:00:48.077Z,98766.81
2023-05-20T09:04:31.641Z,98760.38
2023-05-20T09:08:14.579Z,98765.03
2023-05-20T09:10:43.094Z,98764.63
2023-05-20T09:14:29.294Z,98766.06
2023-05-20T09:16:57.366Z,98751.38
2023-05-20T09:19:26.489Z,98749.72
2023-05-20T09:21:56.307Z,98754.06
2023-05-20T09:24:27.006Z,98741.09
2023-05-20T09:26:55.285Z,98746.19
2023-05-20T09:29:23.503Z,98753.69
2023-05-20T09:31:51.884Z,98745.38
2023-05-20T09:34:22.055Z,98739.31
2023-05-20T09:36:51.172Z,98737.72
2023-05-20T09:39:34.359Z,98743.94
2023-05-20T09:42:12.698Z,98743.75
2023-05-20T09:44:42.713Z,98749.66
2023-05-20T09:47:10.497Z,98737.47
2023-05-20T09:49:39.649Z,98730.28
2023-05-20T09:52:07.712Z,98727.69
2023-05-20T09:54:36.912Z,98736.75
2023-05-20T09:57:07.442Z,98728.50
2023-05-20T09:59:37.917Z,98725.13
2023-05-20T10:02:07.426Z,98721.44
2023-05-20T10:04:43.284Z,98725.16
2023-05-20T10:07:55.570Z,98719.06
2023-05-20T10:11:05.878Z,98710.75
2023-05-20T10:13:57.725Z,98706.59
2023-05-20T10:17:40.999Z,98710.38
2023-05-20T10:21:27.004Z,98709.78
2023-05-20T10:23:55.327Z,98697.34
2023-05-20T10:27:38.203Z,98688.97
2023-05-20T10:31:21.502Z,98692.06
2023-05-20T10:35:05.088Z,98694.03
2023-05-20T10:38:48.193Z,98686.19
2023-05-20T10:41:28.846Z,98689.13
2023-05-20T10:44:06.859Z,98686.94
2023-05-20T10:47:49.724Z,98680.66
2023-05-20T10:51:32.430Z,98680.09
2023-05-20T10:55:14.969Z,98680.75
2023-05-20T10:58:57.833Z,98667.31
2023-05-20T11:02:40.718Z,98671.34
2023-05-20T11:06:23.203Z,98660.94
2023-05-20T11:08:50.393Z,98646.72
2023-05-20T11:11:17.580Z,98648.53
2023-05-20T11:13:45.928Z,98642.25
2023-05-20T11:16:13.550Z,98633.09
2023-05-20T11:18:41.864Z,98630.41
2023-05-20T11:21:09.324Z,98621.09
2023-05-20T11:23:39.877Z,98629.06
2023-05-20T11:26:09.007Z,98629.34
2023-05-20T11:28:36.767Z,98623.13
2023-05-20T11:31:05.725Z,98624.69
2023-05-20T11:33:33.785Z,98622.53
2023-05-20T11:36:44.331Z,98617.22
2023-05-20T11:39:17.780Z,98626.00
2023-05-20T11:41:48.438Z,98615.06
2023-05-20T11:44:15.742Z,98616.31
2023-05-20T11:46:46.068Z,98610.72
2023-05-20T11:49:15.501Z,98598.44
2023-05-20T11:51:45.165Z,98592.91
2023-05-20T11:54:13.381Z,98597.50
2023-05-20T11:56:45.711Z,98600.03
2023-05-20T11:59:14.878Z,98593.72
2023-05-20T12:01:43.232Z,98599.50
2023-05-20T12:04:15.142Z,98576.81
2023-05-20T12:06:44.182Z,98573.06
2023-05-20T12:09:14.222Z,98584.81
2023-05-20T12:11:45.806Z,98577.13
2023-05-20T12:14:16.855Z,98581.69
2023-05-20T12:17:00.101Z,98587.72
2023-05-20T12:19:30.006Z,98578.28
2023-05-20T12:21:59.923Z,98572.94
2023-05-20T12:24:32.289Z,98569.16
2023-05-20T12:27:00.922Z,98560.81
2023-05-20T12:29:31.442Z,98555.06
2023-05-20T12:31:59.314Z,98556.44
2023-05-20T12:34:26.974Z,98559.69
2023-05-20T12:36:54.424Z,98567.09
2023-05-20T12:39:24.293Z,98559.66
2023-05-20T12:41:52.373Z,98549.78
2023-05-20T12:44:20.310Z,98564.22
2023-05-20T12:46:47.877Z,98558.78
2023-05-20T12:49:15.793Z,98567.44
2023-05-20T12:51:43.649Z,98558.34
2023-05-20T12:54:11.098Z,98553.47
2023-05-20T12:56:39.481Z,98553.53
2023-05-20T12:59:07.429Z,98534.44
2023-05-20T13:01:34.967Z,98540.69
2023-05-20T13:04:03.522Z,98536.50
2023-05-20T13:06:35.193Z,98546.84
2023-05-20T13:09:13.533Z,98533.47
2023-05-20T13:11:40.920Z,98543.84
2023-05-20T13:14:11.818Z,98533.94
2023-05-20T13:16:41.228Z,98529.00
2023-05-20T13:19:09.779Z,98527.38
2023-05-20T13:21:48.117Z,98522.81
2023-05-20T13:24:22.390Z,98517.94
2023-05-20T13:26:54.532Z,98527.59
2023-05-20T13:29:22.689Z,98514.44
2023-05-20T13:31:50.395Z,98519.63
2023-05-20T13:34:18.798Z,98514.97
2023-05-20T13:36:50.431Z,98510.28
2023-05-20T13:39:23.211Z,98527.19
2023-05-20T13:41:53.606Z,98509.19
2023-05-20T13:44:23.532Z,98503.91
2023-05-20T13:47:01.162Z,98510.00
2023-05-20T13:49:28.944Z,98503.28
2023-05-20T13:52:07.687Z,98506.31
2023-05-20T13:54:39.050Z,98498.94
2023-05-20T13:57:09.693Z,98492.44
2023-05-20T13:59:37.731Z,98487.97
2023-05-20T14:02:12.486Z,98488.53
2023-05-20T14:04:48.563Z,98497.25
2023-05-20T14:07:16.512Z,98491.81
2023-05-20T14:09:45.480Z,98491.25
2023-05-20T14:12:13.051Z,98470.38
2023-05-20T14:14:43.111Z,98463.81
2023-05-20T14:17:11.056Z,98482.75
2023-05-20T14:19:42.290Z,98472.16
2023-05-20T14:22:12.133Z,98469.63
2023-05-20T14:24:40.133Z,98467.34
2023-05-20T14:27:08.155Z,98457.81
2023-05-20T14:29:36.149Z,98461.78
2023-05-20T14:32:22.493Z,98453.81
2023-05-20T14:34:55.445Z,98462.19
2023-05-20T14:37:37.298Z,98453.22
2023-05-20T14:40:15.176Z,98444.28
2023-05-20T14:42:52.099Z,98444.88
2023-05-20T14:45:23.621Z,98434.22
2023-05-20T14:47:55.015Z,98442.81
2023-05-20T14:50:32.050Z,98447.19
2023-05-20T14:52:59.988Z,98443.88
2023-05-20T14:55:44.808Z,98437.84
2023-05-20T14:58:18.592Z,98427.53
2023-05-20T15:00:53.281Z,98434.81
2023-05-20T15:03:24.382Z,98427.31
2023-05-20T15:06:00.933Z,98438.63
2023-05-20T15:08:42.088Z,98433.09
2023-05-20T15:11:23.821Z,98440.63
2023-05-20T15:14:02.441Z,98442.88
2023-05-20T15:16:34.721Z,98441.94
2023-05-20T15:19:19.310Z,98450.66
2023-05-20T15:21:53.479Z,98439.94
2023-05-20T15:24:41.073Z,98441.38
2023-05-20T15:27:11.554Z,98444.50
2023-05-20T15:29:49.074Z,98432.53
2023-05-20T15:32:40.215Z,98441.66
2023-05-20T15:35:20.966Z,98444.13
2023-05-20T15:37:57.369Z,98442.47
2023-05-20T15:40:27.740Z,98445.72
2023-05-20T15:42:59.028Z,98453.84
2023-05-20T15:45:27.941Z,98461.81
2023-05-20T15:48:03.346Z,98451.78
2023-05-20T15:50:36.373Z,98451.09
2023-05-20T15:53:15.794Z,98462.81
2023-05-20T15:55:46.052Z,98446.09
2023-05-20T15:58:16.101Z,98440.13
2023-05-20T16:00:44.245Z,98435.84
2023-05-20T16:03:13.459Z,98437.59
2023-05-20T16:05:46.419Z,98437.97
2023-05-20T16:08:16.762Z,98427.59
2023-05-20T16:10:51.855Z,98433.59
2023-05-20T16:13:20.090Z,98433.06
2023-05-20T16:16:01.488Z,98428.00
2023-05-20T16:18:34.817Z,98421.63
2023-05-20T16:21:07.970Z,98427.16
2023-05-20T16:23:38.752Z,98424.78
2023-05-20T16:26:13.250Z,98422.19
2023-05-20T16:28:47.508Z,98420.00
2023-05-20T16:31:34.498Z,98430.69
2023-05-20T16:34:04.699Z,98423.75
2023-05-20T16:36:43.936Z,98419.06
2023-05-20T16:39:21.426Z,98415.72
2023-05-20T16:41:53.133Z,98414.50
2023-05-20T16:44:26.124Z,98421.97
2023-05-20T16:46:56.599Z,98426.16
2023-05-20T16:49:28.342Z,98424.50
2023-05-20T16:51:58.749Z,98418.06
2023-05-20T16:54:26.494Z,98421.81
2023-05-20T16:57:00.865Z,98420.09
2023-05-20T16:59:31.578Z,98413.84
2023-05-20T17:01:59.304Z,98415.50
2023-05-20T17:04:27.274Z,98418.94
2023-05-20T17:07:03.176Z,98414.69
2023-05-20T17:09:33.304Z,98409.66
2023-05-20T17:12:01.122Z,98414.41
2023-05-20T17:14:28.621Z,98421.94
2023-05-20T17:16:55.962Z,98416.16
2023-05-20T17:19:23.808Z,98418.59
2023-05-20T17:21:54.327Z,98419.34
2023-05-20T17:24:22.751Z,98429.28
2023-05-20T17:26:50.486Z,98444.94
2023-05-20T17:29:18.179Z,98437.41
2023-05-20T17:31:45.400Z,98438.41
2023-05-20T17:34:13.867Z,98442.91
2023-05-20T17:36:41.459Z,98438.25
2023-05-20T17:39:09.729Z,98441.75
2023-05-20T17:41:37.094Z,98442.41
2023-05-20T17:44:05.056Z,98444.94
2023-05-20T17:46:32.333Z,98438.13
2023-05-20T17:48:59.738Z,98440.72
2023-05-20T17:51:27.299Z,98444.22
2023-05-20T17:53:55.118Z,98443.97
2023-05-20T17:56:22.938Z,98443.81
2023-05-20T17:58:50.657Z,98447.97
2023-05-20T18:01:17.966Z,98449.84
2023-05-20T18:03:46.729Z,98448.09
2023-05-20T18:06:14.702Z,98454.81
2023-05-20T18:08:42.512Z,98449.34
2023-05-20T18:11:10.688Z,98448.78
2023-05-20T18:13:38.343Z,98450.16
2023-05-20T18:16:06.796Z,98457.63
2023-05-20T18:18:34.155Z,98461.81
2023-05-20T18:21:01.470Z,98452.13
2023-05-20T18:23:29.356Z,98448.88
2023-05-20T18:25:57.268Z,98448.84
2023-05-20T18:28:24.584Z,98454.53
2023-05-20T18:30:51.978Z,98453.94
2023-05-20T18:33:19.502Z,98457.00
2023-05-20T18:35:46.976Z,98445.22
2023-05-20T18:38:14.433Z,98453.41
2023-05-20T18:40:41.688Z,98454.56
2023-05-20T18:43:09.004Z,98450.13
2023-05-20T18:45:36.310Z,98448.38
2023-05-20T18:48:05.266Z,98445.28
2023-05-20T18:50:33.290Z,98454.34
2023-05-20T18:53:00.856Z,98448.03
2023-05-20T18:55:28.275Z,98451.13
2023-05-20T18:57:56.384Z,98461.72
2023-05-20T19:00:24.393Z,98460.69
2023-05-20T19:02:51.703Z,98462.47
2023-05-20T19:05:20.069Z,98463.88
2023-05-20T19:07:47.479Z,98459.63
2023-05-20T19:10:15.487Z,98479.44
2023-05-20T19:12:43.589Z,98472.56
2023-05-20T19:15:11.809Z,98472.06
2023-05-20T19:17:39.668Z,98474.63
2023-05-20T19:20:08.916Z,98474.66
2023-05-20T19:22:36.179Z,98471.28
2023-05-20T19:25:05.215Z,98475.03
2023-05-20T19:27:32.492Z,98476.38
2023-05-20T19:29:59.767Z,98472.75
2023-05-20T19:32:27.083Z,98482.16
2023-05-20T19:34:56.880Z,98478.97
2023-05-20T19:37:24.464Z,98482.59
2023-05-20T19:39:51.756Z,98478.59
2023-05-20T19:42:19.034Z,98484.81
2023-05-20T19:44:50.486Z,98491.41
2023-05-20T19:47:17.971Z,98488.41
2023-05-20T19:49:45.271Z,98488.50
2023-05-20T19:52:12.472Z,98495.91
2023-05-20T19:54:41.678Z,98488.84
2023-05-20T19:57:08.993Z,98488.84
2023-05-20T19:59:38.052Z,98498.31
2023-05-20T20:02:07.130Z,98497.25
2023-05-20T20:04:34.434Z,98502.66
2023-05-20T20:07:02.491Z,98504.06
2023-05-20T20:09:31.270Z,98506.94
2023-05-20T20:11:58.760Z,98490.44
2023-05-20T20:14:25.986Z,98497.41
2023-05-20T20:16:54.556Z,98489.56
2023-05-20T20:19:23.054Z,98491.88
2023-05-20T20:21:56.873Z,98487.72
2023-05-20T20:24:24.439Z,98495.22
2023-05-20T20:26:54.138Z,98488.50
2023-05-20T20:29:24.623Z,98488.41
2023-05-20T20:31:52.498Z,98487.56
2023-05-20T20:34:19.761Z,98485.28
2023-05-20T20:36:47.530Z,98486.09
2023-05-20T20:39:21.171Z,98485.97
2023-05-20T20:41:50.452Z,98488.53
2023-05-20T20:44:22.549Z,98491.41
2023-05-20T20:46:51.717Z,98490.88
2023-05-20T20:49:21.083Z,98481.59
2023-05-20T20:51:50.283Z,98481.91
2023-05-20T20:54:17.865Z,98485.94
2023-05-20T20:56:47.172Z,98484.78
2023-05-20T20:59:15.815Z,98483.31
2023-05-20T21:01:44.782Z,98483.66
2023-05-20T21:04:14.057Z,98482.03
2023-05-20T21:06:47.596Z,98482.88
2023-05-20T21:09:16.323Z,98485.53
2023-05-20T21:11:45.270Z,98483.91
2023-05-20T21:14:13.275Z,98482.06
2023-05-20T21:16:42.136Z,98487.06
2023-05-20T21:19:10.414Z,98490.38
2023-05-20T21:22:04.594Z,98487.91
2023-05-20T21:24:32.672Z,98479.22
2023-05-20T21:27:00.148Z,98478.25
2023-05-20T21:29:27.404Z,98479.75
2023-05-20T21:31:55.102Z,98477.72
2023-05-20T21:34:22.288Z,98473.78
2023-05-20T21:36:49.540Z,98466.59
2023-05-20T21:39:17.093Z,98470.06
2023-05-20T21:41:44.427Z,98468.25
2023-05-20T21:44:11.689Z,98468.38
2023-05-20T21:46:39.162Z,98473.84
2023-05-20T21:49:06.531Z,98463.41
2023-05-20T21:51:33.991Z,98468.75
2023-05-20T21:54:01.477Z,98463.00
2023-05-20T21:56:28.798Z,98465.13
2023-05-20T21:58:56.238Z,98455.44
2023-05-20T22:01:23.692Z,98457.78
2023-05-20T22:03:53.398Z,98459.97
2023-05-20T22:06:21.700Z,98455.13
2023-05-20T22:08:49.388Z,98462.59
2023-05-20T22:11:17.049Z,98452.75
2023-05-20T22:13:44.593Z,98457.38
2023-05-20T22:16:12.079Z,98450.41
2023-05-20T22:18:39.709Z,98451.13
2023-05-20T22:21:11.747Z,98444.91
2023-05-20T22:23:41.130Z,98435.44
2023-05-20T22:26:11.567Z,98439.75
2023-05-20T22:28:38.781Z,98428.38
2023-05-20T22:31:06.328Z,98442.66
2023-05-20T22:33:33.868Z,98436.47
2023-05-20T22:36:01.115Z,98424.69
2023-05-20T22:38:30.720Z,98431.97
2023-05-20T22:40:57.993Z,98439.41
2023-05-20T22:43:26.275Z,98436.53
2023-05-20T22:45:53.999Z,98436.88
2023-05-20T22:48:23.179Z,98432.56
2023-05-20T22:50:51.782Z,98430.75
2023-05-20T22:53:20.998Z,98422.38
2023-05-20T22:55:49.136Z,98421.53
2023-05-20T22:58:16.857Z,98425.31
2023-05-20T23:00:44.567Z,98411.16
2023-05-20T23:03:12.370Z,98415.53
2023-05-20T23:05:39.682Z,98409.34
2023-05-20T23:08:07.002Z,98412.66
2023-05-20T23:10:34.729Z,98414.78
2023-05-20T23:13:02.220Z,98405.53
2023-05-20T23:15:31.147Z,98401.66
2023-05-20T23:19:13.888Z,98402.56
2023-05-20T23:21:41.197Z,98407.47
2023-05-20T23:25:27.033Z,98401.13
2023-05-20T23:27:54.290Z,98393.34
2023-05-20T23:30:21.663Z,98399.75
2023-05-20T23:34:04.517Z,98396.00
2023-05-20T23:36:34.461Z,98394.84
2023-05-20T23:40:17.166Z,98396.84
2023-05-20T23:42:50.465Z,98400.69
2023-05-20T23:46:32.845Z,98402.25
2023-05-20T23:50:15.794Z,98403.56
2023-05-20T23:52:43.187Z,98400.34
2023-05-20T23:55:13.002Z,98404.31
2023-05-20T23:58:57.502Z,98401.63
